Time;durP1;ratioP1;P1;durP2;ratioP2;P2;SDS_P1;SDS_P2;PMS_P1;PMS_P2;Temp;Humidity;BMP_temperature;BMP_pressure;BME280_temperature;BME280_humidity;BME280_pressure;Samples;Min_cycle;Max_cycle;Signal;HPM_P1;HPM_P2
2023/01/11 00:02:37;;;;;;;12.55;5.65;;;;;;;10.24;100.00;100429.69;10417478;28;20091;-64
2023/01/11 00:07:39;;;;;;;9.75;6.10;;;;;;;10.28;100.00;100441.81;10416121;28;20069;-65
2023/01/11 00:12:40;;;;;;;10.82;5.05;;;;;;;10.28;100.00;100435.59;10416565;28;20033;-65
2023/01/11 00:17:40;;;;;;;7.53;6.13;;;;;;;10.28;100.00;100447.22;10416734;28;20418;-65
2023/01/11 00:22:41;;;;;;;9.13;6.30;;;;;;;10.27;100.00;100447.44;10416279;28;20034;-65
2023/01/11 00:27:41;;;;;;;11.23;6.05;;;;;;;10.27;100.00;100450.13;10415989;28;20135;-65
2023/01/11 00:32:42;;;;;;;10.38;7.38;;;;;;;10.32;100.00;100450.34;10416019;28;20037;-64
2023/01/11 00:37:42;;;;;;;7.22;5.97;;;;;;;10.28;100.00;100441.81;10398944;28;20061;-64
2023/01/11 00:48:04;;;;;;;17.67;6.03;;;;;;;10.29;100.00;100440.78;10415145;28;20072;-64
2023/01/11 00:53:04;;;;;;;7.75;5.82;;;;;;;10.29;100.00;100438.06;10416883;28;20041;-64
2023/01/11 00:58:05;;;;;;;5.60;5.10;;;;;;;10.33;100.00;100444.72;10414899;28;20534;-64
2023/01/11 01:03:05;;;;;;;6.10;4.47;;;;;;;10.35;100.00;100431.81;10397381;28;20033;-64
2023/01/11 01:08:06;;;;;;;6.35;4.85;;;;;;;10.38;100.00;100444.13;10415355;28;20048;-65
2023/01/11 01:18:27;;;;;;;5.68;4.30;;;;;;;10.41;100.00;100446.41;10397899;28;20124;-66
2023/01/11 01:23:28;;;;;;;6.32;4.10;;;;;;;10.46;100.00;100457.44;10429360;28;20033;-65
2023/01/11 01:28:28;;;;;;;6.00;4.53;;;;;;;10.48;100.00;100463.47;10432380;28;20068;-65
2023/01/11 01:33:28;;;;;;;6.75;5.75;;;;;;;10.50;100.00;100463.25;10425186;28;20033;-64
2023/01/11 01:38:29;;;;;;;7.30;4.68;;;;;;;10.58;100.00;100468.47;10422702;28;20052;-65
2023/01/11 01:44:03;;;;;;;4.68;3.25;;;;;;;10.58;100.00;100471.19;10422042;28;20409;-64
2023/01/11 01:49:11;;;;;;;3.63;3.40;;;;;;;10.65;100.00;100482.84;10378770;28;20073;-64
2023/01/11 01:54:13;;;;;;;7.07;2.63;;;;;;;10.69;100.00;100493.06;10426746;28;20061;-64
2023/01/11 01:59:14;;;;;;;3.75;2.70;;;;;;;10.70;100.00;100486.59;10398058;28;20060;-63
2023/01/11 02:04:22;;;;;;;4.70;2.95;;;;;;;10.71;100.00;100492.84;10433343;28;20052;-64
2023/01/11 02:09:28;;;;;;;3.50;2.65;;;;;;;10.77;100.00;100483.06;10416375;28;20029;-64
2023/01/11 02:14:30;;;;;;;4.07;2.30;;;;;;;10.85;100.00;100494.53;10433803;28;20029;-64
2023/01/11 02:19:56;;;;;;;4.25;2.72;;;;;;;10.91;100.00;100499.09;10420450;28;20041;-65
2023/01/11 02:24:59;;;;;;;3.47;2.17;;;;;;;10.91;100.00;100482.00;10392305;28;20049;-64
2023/01/11 02:30:43;;;;;;;5.03;3.63;;;;;;;10.92;100.00;100503.47;10433267;28;20053;-64
2023/01/11 02:35:49;;;;;;;12.77;3.28;;;;;;;10.92;100.00;100495.34;10251433;29;20085;-67
2023/01/11 02:40:53;;;;;;;11.02;3.47;;;;;;;10.89;100.00;100505.78;10383939;28;20046;-65
2023/01/11 02:46:15;;;;;;;6.70;2.55;;;;;;;10.86;100.00;100495.34;10434037;28;20376;-65
2023/01/11 02:51:19;;;;;;;11.55;3.35;;;;;;;10.82;100.00;100500.38;10435089;28;20445;-64
2023/01/11 02:56:27;;;;;;;9.05;3.63;;;;;;;10.79;100.00;100506.19;10417749;28;20022;-64
2023/01/11 03:01:27;;;;;;;10.05;3.83;;;;;;;10.83;100.00;100506.59;10406660;28;20457;-64
2023/01/11 03:06:31;;;;;;;9.45;3.03;;;;;;;10.82;100.00;100507.66;10419282;28;20041;-64
2023/01/11 03:17:27;;;;;;;12.07;2.92;;;;;;;10.81;100.00;100508.69;10417341;28;20038;-64
2023/01/11 03:22:45;;;;;;;7.38;3.63;;;;;;;10.80;100.00;100525.97;10412546;28;20036;-63
2023/01/11 03:28:09;;;;;;;11.57;5.20;;;;;;;10.78;100.00;100520.75;10411037;28;20088;-65
2023/01/11 03:33:20;;;;;;;34.80;5.63;;;;;;;10.76;100.00;100528.28;10408258;28;20030;-64
2023/01/11 03:38:26;;;;;;;20.27;4.97;;;;;;;10.73;100.00;100536.81;10388744;28;20029;-64
2023/01/11 03:43:27;;;;;;;16.77;6.18;;;;;;;10.66;100.00;100541.41;10372956;28;20032;-65
2023/01/11 03:48:36;;;;;;;17.27;4.47;;;;;;;10.69;100.00;100565.34;10406483;28;20037;-64
2023/01/11 03:53:36;;;;;;;14.35;4.97;;;;;;;10.69;100.00;100570.78;10406732;28;20029;-64
2023/01/11 03:58:37;;;;;;;31.95;7.32;;;;;;;10.67;100.00;100586.38;10417457;28;20026;-64
2023/01/11 04:03:37;;;;;;;37.03;8.60;;;;;;;10.63;100.00;100595.97;10417580;28;20033;-64
2023/01/11 04:08:38;;;;;;;20.73;4.95;;;;;;;10.62;100.00;100599.69;10401110;28;20048;-64
2023/01/11 04:13:39;;;;;;;30.10;6.43;;;;;;;10.61;100.00;100603.44;10416150;28;20025;-64
2023/01/11 04:18:40;;;;;;;18.50;6.55;;;;;;;10.53;100.00;100595.50;10417123;28;20037;-64
2023/01/11 04:23:41;;;;;;;23.25;5.93;;;;;;;10.43;100.00;100594.06;10399889;28;20117;-64
2023/01/11 04:28:42;;;;;;;34.53;7.47;;;;;;;10.32;100.00;100612.75;10397899;28;20101;-64
2023/01/11 04:33:42;;;;;;;21.15;6.57;;;;;;;10.20;100.00;100613.28;10398535;28;20072;-64
2023/01/11 04:38:43;;;;;;;27.95;7.15;;;;;;;10.11;100.00;100627.19;10416857;28;20068;-66
2023/01/11 04:43:43;;;;;;;36.97;6.78;;;;;;;10.07;100.00;100625.94;10398136;28;20080;-64
2023/01/11 04:48:44;;;;;;;23.63;6.28;;;;;;;9.96;100.00;100628.16;10415798;28;20473;-64
2023/01/11 04:53:46;;;;;;;16.02;5.63;;;;;;;9.86;100.00;100622.28;10416591;28;20068;-64
2023/01/11 04:58:46;;;;;;;18.65;5.72;;;;;;;9.78;100.00;100644.06;10415890;28;20457;-64
2023/01/11 05:03:46;;;;;;;25.25;4.30;;;;;;;9.66;100.00;100632.13;10415177;28;20037;-64
2023/01/11 05:08:47;;;;;;;16.48;4.95;;;;;;;9.63;100.00;100648.75;10398690;28;20044;-64
2023/01/11 05:13:49;;;;;;;15.10;3.42;;;;;;;9.58;100.00;100653.94;10397596;28;20037;-65
2023/01/11 05:18:53;;;;;;;22.55;4.95;;;;;;;9.52;100.00;100674.47;10415096;28;20377;-65
2023/01/11 05:23:54;;;;;;;12.10;4.80;;;;;;;9.41;100.00;100681.25;10414456;28;20033;-64
2023/01/11 05:28:56;;;;;;;11.20;4.72;;;;;;;9.34;100.00;100685.75;10415629;28;20141;-65
2023/01/11 05:33:57;;;;;;;16.73;4.25;;;;;;;9.31;100.00;100680.72;10397373;28;20096;-64
2023/01/11 05:38:57;;;;;;;22.17;4.70;;;;;;;9.27;100.00;100682.16;10414528;28;20084;-65
2023/01/11 05:49:16;;;;;;;11.65;3.20;;;;;;;9.27;100.00;100690.28;10414099;28;20072;-66
2023/01/11 05:54:17;;;;;;;14.63;4.85;;;;;;;9.11;100.00;100693.22;10396944;28;20033;-65
2023/01/11 05:59:17;;;;;;;20.90;4.45;;;;;;;8.98;100.00;100700.16;10423521;28;20041;-66
2023/01/11 06:04:18;;;;;;;27.20;4.65;;;;;;;8.95;100.00;100710.53;10408880;28;20060;-66
2023/01/11 06:09:18;;;;;;;13.13;4.63;;;;;;;8.85;100.00;100718.94;10428658;28;20045;-66
2023/01/11 06:14:18;;;;;;;26.40;5.88;;;;;;;8.78;100.00;100729.66;10428736;28;20033;-66
2023/01/11 06:19:19;;;;;;;24.13;6.07;;;;;;;8.68;100.00;100736.38;10423802;28;20393;-65
2023/01/11 06:24:19;;;;;;;18.23;5.22;;;;;;;8.62;100.00;100748.78;10403918;28;20120;-65
2023/01/11 06:29:19;;;;;;;38.30;6.65;;;;;;;8.58;100.00;100756.44;10421057;28;20061;-65
2023/01/11 06:34:20;;;;;;;18.20;4.55;;;;;;;8.52;100.00;100761.72;10421140;28;20056;-65
2023/01/11 06:39:21;;;;;;;26.25;5.63;;;;;;;8.45;100.00;100763.50;10420948;28;20054;-65
2023/01/11 06:44:22;;;;;;;15.02;5.15;;;;;;;8.43;100.00;100777.19;10419888;28;20385;-65
2023/01/11 06:49:23;;;;;;;18.92;4.10;;;;;;;8.37;100.00;100772.50;10418862;28;20037;-65
2023/01/11 06:54:24;;;;;;;33.20;6.25;;;;;;;8.33;100.00;100784.69;10418815;28;20069;-65
2023/01/11 06:59:24;;;;;;;15.05;5.15;;;;;;;8.28;100.00;100782.53;10420021;28;20049;-66
2023/01/11 07:04:25;;;;;;;17.83;5.32;;;;;;;8.27;100.00;100788.13;10417825;28;20389;-66
2023/01/11 07:09:25;;;;;;;28.70;5.75;;;;;;;8.20;100.00;100792.56;10417829;28;20037;-65
2023/01/11 07:14:26;;;;;;;13.50;3.50;;;;;;;8.13;100.00;100797.88;10400444;28;20060;-66
2023/01/11 07:19:26;;;;;;;16.95;4.47;;;;;;;8.08;100.00;100822.69;10400883;28;20441;-66
2023/01/11 07:24:27;;;;;;;19.27;4.78;;;;;;;8.06;100.00;100829.28;10419369;28;20060;-66
2023/01/11 07:29:27;;;;;;;17.58;6.05;;;;;;;8.02;100.00;100830.69;10418653;28;20054;-66
2023/01/11 07:34:28;;;;;;;13.68;5.18;;;;;;;7.98;100.00;100832.91;10418545;28;20055;-67
2023/01/11 07:39:28;;;;;;;28.33;5.75;;;;;;;7.98;100.00;100838.31;10399758;28;20493;-67
2023/01/11 07:44:29;;;;;;;19.23;6.85;;;;;;;7.91;100.00;100843.59;10417501;28;20033;-66
2023/01/11 07:49:30;;;;;;;22.38;5.82;;;;;;;7.90;100.00;100857.22;10416318;28;20397;-65
2023/01/11 07:54:30;;;;;;;22.90;4.93;;;;;;;7.88;100.00;100864.66;10416922;28;20033;-67
2023/01/11 07:59:31;;;;;;;12.82;5.15;;;;;;;7.90;100.00;100886.91;10419700;28;20033;-66
2023/01/11 08:04:31;;;;;;;21.75;5.00;;;;;;;7.87;100.00;100895.34;10400779;28;20426;-66
2023/01/11 08:09:31;;;;;;;33.38;5.95;;;;;;;7.82;100.00;100895.91;10417291;28;20041;-66
2023/01/11 08:14:38;;;;;;;26.88;4.97;;;;;;;7.77;100.00;100895.59;10416518;28;20439;-66
2023/01/11 08:19:38;;;;;;;34.40;7.60;;;;;;;7.75;100.00;100903.00;10400411;28;20037;-66
2023/01/11 08:24:39;;;;;;;41.83;8.55;;;;;;;7.76;100.00;100920.03;10400096;28;20103;-66
2023/01/11 08:29:42;;;;;;;15.45;6.15;;;;;;;7.82;100.00;100922.03;10398292;28;20492;-66
2023/01/11 08:34:43;;;;;;;29.10;6.88;;;;;;;7.79;100.00;100927.75;10418414;28;20033;-65
2023/01/11 08:39:43;;;;;;;16.70;6.28;;;;;;;7.95;100.00;100934.91;10422482;28;20045;-66
2023/01/11 08:44:44;;;;;;;16.70;5.72;;;;;;;8.29;100.00;100932.59;10416544;28;20041;-65
2023/01/11 08:49:44;;;;;;;28.38;6.55;;;;;;;8.69;100.00;100937.84;10415161;28;20041;-66
2023/01/11 08:54:44;;;;;;;30.58;5.18;;;;;;;9.28;100.00;100937.81;10398246;28;20461;-65
2023/01/11 08:59:45;;;;;;;25.25;5.20;;;;;;;9.67;100.00;100937.50;10414825;28;20021;-66
2023/01/11 09:04:45;;;;;;;24.88;6.15;;;;;;;9.95;100.00;100928.63;10414420;28;20061;-67
2023/01/11 09:09:46;;;;;;;20.88;7.13;;;;;;;10.24;100.00;100946.59;10422473;28;20037;-65
2023/01/11 09:14:46;;;;;;;21.73;4.50;;;;;;;10.51;100.00;100938.75;10405080;28;20140;-66
2023/01/11 09:19:47;;;;;;;23.50;6.13;;;;;;;10.79;100.00;100953.13;10417279;28;20041;-67
2023/01/11 09:24:47;;;;;;;7.63;4.75;;;;;;;10.97;100.00;100954.47;10398779;28;20480;-66
2023/01/11 09:29:47;;;;;;;10.27;3.97;;;;;;;11.17;100.00;100960.88;10416134;28;20108;-67
2023/01/11 09:34:48;;;;;;;16.52;5.22;;;;;;;11.43;100.00;100959.31;10423258;28;20068;-66
2023/01/11 09:39:50;;;;;;;21.90;4.65;;;;;;;11.56;100.00;100959.38;10410716;28;20029;-66
2023/01/11 09:44:53;;;;;;;25.10;4.90;;;;;;;11.69;100.00;100958.59;10441027;28;20120;-67
2023/01/11 09:49:57;;;;;;;13.80;3.60;;;;;;;11.74;100.00;100966.94;10404369;28;20108;-66
2023/01/11 09:54:57;;;;;;;18.35;5.60;;;;;;;11.29;100.00;100971.97;10434855;28;20025;-66
2023/01/11 10:00:15;;;;;;;14.68;4.00;;;;;;;11.14;100.00;100981.06;10421632;28;20033;-67
2023/01/11 10:05:48;;;;;;;15.52;4.47;;;;;;;11.29;100.00;100980.09;10404325;28;20037;-67
2023/01/11 10:10:54;;;;;;;18.00;5.32;;;;;;;11.84;100.00;101002.69;10421072;28;20033;-66
2023/01/11 10:16:07;;;;;;;28.92;6.13;;;;;;;12.12;100.00;100999.03;10402885;28;20040;-66
2023/01/11 10:21:12;;;;;;;12.77;4.07;;;;;;;12.23;100.00;101007.41;10420742;28;20354;-66
2023/01/11 10:26:23;;;;;;;6.05;3.63;;;;;;;12.26;100.00;101009.72;10403482;28;20128;-65
2023/01/11 10:31:48;;;;;;;10.07;3.35;;;;;;;12.60;100.00;101004.31;10404256;28;20084;-66
2023/01/11 10:37:25;;;;;;;25.83;6.70;;;;;;;12.88;100.00;101018.53;10393220;28;20029;-67
2023/01/11 10:42:28;;;;;;;17.05;5.88;;;;;;;12.73;100.00;101015.19;10406549;28;20029;-66
2023/01/11 10:47:33;;;;;;;13.85;4.03;;;;;;;12.32;100.00;101017.03;10387287;28;20040;-67
2023/01/11 10:53:06;;;;;;;26.42;7.43;;;;;;;12.03;100.00;100998.41;10404293;28;20060;-67
2023/01/11 10:58:12;;;;;;;9.13;3.08;;;;;;;11.60;100.00;100999.44;10408161;28;20049;-66
2023/01/11 11:03:31;;;;;;;19.45;4.53;;;;;;;11.37;100.00;101013.31;10391012;28;20037;-66
2023/01/11 11:08:56;;;;;;;5.28;3.65;;;;;;;11.44;100.00;100996.25;10419199;28;20111;-67
2023/01/11 11:14:17;;;;;;;18.60;4.68;;;;;;;11.24;100.00;101004.28;10387528;28;20357;-65
2023/01/11 11:19:20;;;;;;;20.92;5.18;;;;;;;10.95;100.00;101000.75;10401848;28;20092;-66
2023/01/11 11:24:44;;;;;;;13.38;5.18;;;;;;;11.06;100.00;101005.59;10384223;28;20021;-66
2023/01/11 11:29:52;;;;;;;18.27;5.25;;;;;;;10.80;100.00;101014.38;10363794;28;20050;-66
2023/01/11 11:34:53;;;;;;;10.23;3.53;;;;;;;10.79;100.00;101020.00;10386841;28;20034;-65
2023/01/11 11:39:54;;;;;;;12.57;5.60;;;;;;;10.70;100.00;101030.13;10427910;28;20109;-66
2023/01/11 11:45:09;;;;;;;17.55;5.40;;;;;;;10.40;100.00;101024.88;10418003;28;20124;-65
2023/01/11 11:50:30;;;;;;;9.80;3.67;;;;;;;10.09;100.00;101027.84;10417234;28;20072;-65
2023/01/11 11:55:32;;;;;;;15.98;4.60;;;;;;;10.21;100.00;101030.84;10401913;28;20045;-66
2023/01/11 12:00:34;;;;;;;15.63;5.03;;;;;;;10.23;100.00;101020.69;10402441;28;20041;-66
2023/01/11 12:05:34;;;;;;;24.27;5.43;;;;;;;10.50;100.00;101029.97;10399251;28;20099;-65
2023/01/11 12:10:34;;;;;;;13.18;4.78;;;;;;;10.91;100.00;101021.97;10417208;28;20073;-66
2023/01/11 12:15:35;;;;;;;19.60;5.90;;;;;;;11.58;100.00;101030.50;10398074;28;20071;-66
2023/01/11 12:20:39;;;;;;;15.98;3.83;;;;;;;11.20;100.00;101039.06;10398814;28;20029;-66
2023/01/11 12:25:45;;;;;;;10.93;3.58;;;;;;;11.05;100.00;101043.75;10418123;28;20108;-65
2023/01/11 12:30:52;;;;;;;7.97;4.70;;;;;;;11.30;100.00;101034.13;10417912;28;20049;-65
2023/01/11 12:36:04;;;;;;;10.18;4.53;;;;;;;11.23;100.00;101040.53;10399136;28;20033;-65
2023/01/11 12:41:42;;;;;;;18.45;4.57;;;;;;;11.08;100.00;101022.50;10382089;28;20095;-65
2023/01/11 12:46:53;;;;;;;12.23;4.38;;;;;;;11.83;100.00;101030.84;10415639;28;20033;-66
2023/01/11 12:52:18;;;;;;;15.48;4.97;;;;;;;12.07;100.00;101026.78;10416443;28;20033;-64
2023/01/11 12:57:18;;;;;;;11.98;4.75;;;;;;;11.98;100.00;101026.13;10415344;28;20025;-66
2023/01/11 13:02:30;;;;;;;17.95;5.47;;;;;;;11.78;100.00;101026.03;10414981;28;20057;-66
2023/01/11 13:07:37;;;;;;;27.60;6.53;;;;;;;11.36;100.00;101025.19;10418901;28;20492;-65
2023/01/11 13:13:01;;;;;;;13.45;4.80;;;;;;;11.15;100.00;101022.56;10423749;28;20029;-64
2023/01/11 13:18:01;;;;;;;14.07;4.95;;;;;;;10.69;100.00;101015.75;10423623;28;20021;-66
2023/01/11 13:23:04;;;;;;;10.25;4.10;;;;;;;10.67;100.00;101004.28;10424787;28;20466;-65
2023/01/11 13:28:28;;;;;;;13.55;3.92;;;;;;;10.47;100.00;101003.28;10390072;28;20133;-65
2023/01/11 13:33:31;;;;;;;20.20;4.65;;;;;;;10.29;100.00;100997.47;10399390;28;20076;-66
2023/01/11 13:38:46;;;;;;;16.67;5.10;;;;;;;10.17;100.00;100988.97;10389832;28;20083;-66
2023/01/11 13:44:10;;;;;;;11.45;4.18;;;;;;;10.14;100.00;100975.84;10404415;28;20037;-66
2023/01/11 13:49:29;;;;;;;24.02;6.30;;;;;;;10.01;100.00;100976.53;10405293;28;20056;-65
2023/01/11 13:54:54;;;;;;;16.45;5.22;;;;;;;9.87;100.00;100972.88;10405081;28;20462;-65
2023/01/11 13:59:59;;;;;;;9.68;4.32;;;;;;;9.83;100.00;100976.13;10404424;28;20026;-65
2023/01/11 14:05:12;;;;;;;22.65;5.57;;;;;;;9.89;100.00;100976.22;10405487;28;20381;-66
2023/01/11 14:10:25;;;;;;;9.23;3.67;;;;;;;9.83;100.00;100974.28;10391790;28;20448;-65
2023/01/11 14:15:43;;;;;;;20.33;5.75;;;;;;;9.74;100.00;100980.84;10387849;28;20033;-66
2023/01/11 14:21:04;;;;;;;21.92;6.47;;;;;;;9.67;100.00;100990.75;10405518;28;20029;-66
2023/01/11 14:26:09;;;;;;;22.75;6.35;;;;;;;9.62;100.00;100988.59;10420523;28;20055;-65
2023/01/11 14:31:20;;;;;;;23.17;6.72;;;;;;;9.61;100.00;100981.50;10379634;28;20445;-65
2023/01/11 14:36:29;;;;;;;17.30;4.35;;;;;;;9.50;100.00;100980.09;10380968;28;20021;-66
2023/01/11 14:41:48;;;;;;;21.75;5.28;;;;;;;9.43;100.00;100973.78;10378972;28;20030;-65
2023/01/11 14:47:34;;;;;;;26.63;5.25;;;;;;;9.49;100.00;100972.19;10378869;28;20109;-66
2023/01/11 14:52:35;;;;;;;23.63;5.90;;;;;;;9.57;100.00;100974.78;10331818;28;20222;-65
2023/01/11 14:57:43;;;;;;;24.60;4.95;;;;;;;9.59;100.00;100970.03;10378761;28;20061;-66
2023/01/11 15:02:44;;;;;;;19.40;5.60;;;;;;;9.45;100.00;100965.50;10344930;28;20076;-65
2023/01/11 15:07:48;;;;;;;21.52;6.65;;;;;;;9.34;100.00;100952.44;10377488;28;20209;-65
2023/01/11 15:12:48;;;;;;;24.83;5.75;;;;;;;9.11;100.00;100964.22;10361007;28;20037;-65
2023/01/11 15:23:12;;;;;;;26.77;5.20;;;;;;;8.75;100.00;100956.84;10378588;28;20034;-66
2023/01/11 15:28:51;;;;;;;20.17;6.55;;;;;;;8.69;100.00;100975.63;10366482;28;20049;-66
2023/01/11 15:33:51;;;;;;;18.33;5.82;;;;;;;8.58;100.00;100985.00;10407658;28;20172;-65
2023/01/11 15:38:58;;;;;;;17.80;6.80;;;;;;;8.61;100.00;100979.22;10385168;28;20532;-65
2023/01/11 15:44:37;;;;;;;21.10;6.00;;;;;;;8.52;100.00;100985.72;10402451;28;20048;-66
2023/01/11 15:50:04;;;;;;;17.55;5.53;;;;;;;8.39;100.00;100972.84;10407630;28;20373;-66
2023/01/11 15:55:33;;;;;;;22.15;6.00;;;;;;;8.38;100.00;100988.19;10416648;28;20499;-66
2023/01/11 16:01:14;;;;;;;23.35;5.82;;;;;;;8.30;100.00;101012.53;10401598;28;20033;-66
2023/01/11 16:06:24;;;;;;;25.60;7.15;;;;;;;8.37;100.00;101015.34;10385899;28;20040;-66
2023/01/11 16:11:30;;;;;;;19.35;6.50;;;;;;;8.52;100.00;101026.19;10399426;28;20068;-65
2023/01/11 16:16:37;;;;;;;26.30;6.67;;;;;;;8.65;100.00;101012.09;10383029;28;20049;-65
2023/01/11 16:21:39;;;;;;;18.75;6.07;;;;;;;8.73;100.00;101007.47;10384173;28;20029;-66
2023/01/11 16:26:39;;;;;;;12.50;5.07;;;;;;;8.67;100.00;101004.66;10397775;28;20375;-65
2023/01/11 16:31:56;;;;;;;21.58;5.93;;;;;;;8.54;100.00;100991.78;10415507;28;20057;-65
2023/01/11 16:36:57;;;;;;;19.17;5.18;;;;;;;8.61;100.00;100984.63;10397700;28;20036;-66
2023/01/11 16:42:00;;;;;;;12.02;4.28;;;;;;;8.63;100.00;100971.78;10397463;28;20075;-66
2023/01/11 16:47:16;;;;;;;22.33;8.13;;;;;;;8.59;100.00;100974.03;10397321;28;20022;-66
2023/01/11 16:52:26;;;;;;;33.67;7.37;;;;;;;8.61;100.00;100963.91;10415499;28;20033;-64
2023/01/11 16:57:31;;;;;;;26.10;7.82;;;;;;;8.77;100.00;100975.53;10414916;28;20062;-65
2023/01/11 17:02:37;;;;;;;24.98;6.47;;;;;;;8.98;100.00;100969.44;10397639;28;20458;-66
2023/01/11 17:07:38;;;;;;;20.05;6.93;;;;;;;9.00;100.00;100973.63;10397733;28;20033;-65
2023/01/11 17:12:39;;;;;;;24.80;8.05;;;;;;;9.02;100.00;100966.16;10414860;28;20034;-66
2023/01/11 17:17:40;;;;;;;17.55;6.30;;;;;;;9.00;100.00;100951.19;10384508;28;20025;-66
2023/01/11 17:22:41;;;;;;;16.30;5.47;;;;;;;9.06;100.00;100942.31;10405036;28;20044;-65
2023/01/11 17:27:46;;;;;;;15.82;4.28;;;;;;;9.17;100.00;100949.13;10392898;28;20076;-68
2023/01/11 17:32:48;;;;;;;9.30;5.00;;;;;;;9.04;100.00;100947.91;10429144;28;20033;-65
2023/01/11 17:37:50;;;;;;;24.10;5.40;;;;;;;8.60;100.00;100948.69;10413103;28;20409;-64
2023/01/11 17:48:14;;;;;;;24.58;4.22;;;;;;;8.16;100.00;100965.56;10437451;28;20041;-64
2023/01/11 17:53:21;;;;;;;13.73;3.38;;;;;;;8.09;100.00;100948.44;10421114;28;20040;-65
2023/01/11 17:58:26;;;;;;;19.67;5.68;;;;;;;8.21;100.00;100948.03;10416749;28;20517;-64
2023/01/11 18:03:26;;;;;;;9.57;3.75;;;;;;;8.12;100.00;100945.38;10389317;28;20033;-65
2023/01/11 18:08:27;;;;;;;11.00;3.97;;;;;;;8.04;100.00;100934.66;10418141;28;20037;-65
2023/01/11 18:13:35;;;;;;;22.73;5.47;;;;;;;8.08;100.00;100908.16;10435547;28;20037;-65
2023/01/11 18:18:40;;;;;;;27.85;5.15;;;;;;;8.00;100.00;100929.78;10432296;28;20037;-64
2023/01/11 18:23:40;;;;;;;16.15;6.50;;;;;;;8.04;100.00;100913.09;10444543;28;20048;-63
2023/01/11 18:28:42;;;;;;;13.48;5.20;;;;;;;8.04;100.00;100906.81;10411826;28;20056;-63
2023/01/11 18:33:43;;;;;;;23.90;6.03;;;;;;;8.08;100.00;100892.81;10442802;28;20473;-64
2023/01/11 18:38:43;;;;;;;26.08;5.45;;;;;;;8.04;100.00;100869.94;10437398;28;20040;-64
2023/01/11 18:43:44;;;;;;;19.02;4.38;;;;;;;8.02;100.00;100857.66;10431692;28;20484;-64
2023/01/11 18:48:44;;;;;;;15.85;6.10;;;;;;;8.00;100.00;100855.13;10424981;28;20041;-64
2023/01/11 18:53:45;;;;;;;10.85;4.10;;;;;;;7.86;100.00;100839.75;10403057;28;20048;-65
2023/01/11 18:58:45;;;;;;;22.02;5.47;;;;;;;7.86;100.00;100848.69;10421806;28;20033;-65
2023/01/11 19:03:45;;;;;;;9.43;3.72;;;;;;;7.64;100.00;100861.13;10426298;28;20046;-64
2023/01/11 19:08:46;;;;;;;27.63;6.22;;;;;;;7.68;100.00;100877.78;10401457;28;20060;-64
2023/01/11 19:13:46;;;;;;;18.17;5.07;;;;;;;7.77;100.00;100878.56;10422765;28;20335;-65
2023/01/11 19:18:47;;;;;;;21.85;4.72;;;;;;;7.77;100.00;100859.69;10402283;28;20378;-65
2023/01/11 19:23:48;;;;;;;20.25;5.05;;;;;;;7.65;100.00;100838.53;10401705;28;20132;-65
2023/01/11 19:28:49;;;;;;;23.88;4.22;;;;;;;7.68;100.00;100840.06;10420636;28;20153;-64
2023/01/11 19:33:49;;;;;;;10.52;4.03;;;;;;;7.59;100.00;100838.44;10419749;28;20034;-64
2023/01/11 19:38:50;;;;;;;20.65;5.45;;;;;;;7.59;100.00;100863.50;10390215;28;20042;-65
2023/01/11 19:43:50;;;;;;;14.65;3.60;;;;;;;7.68;100.00;100846.28;10428872;28;20038;-65
2023/01/11 19:48:51;;;;;;;19.52;3.97;;;;;;;7.62;100.00;100844.28;10441138;28;20056;-65
2023/01/11 19:53:51;;;;;;;18.50;4.03;;;;;;;7.62;100.00;100846.16;10444198;28;20038;-64
2023/01/11 19:58:51;;;;;;;13.05;4.47;;;;;;;7.67;100.00;100841.91;10442984;28;20041;-65
2023/01/11 20:03:52;;;;;;;11.40;5.13;;;;;;;7.72;100.00;100845.91;10444125;28;20033;-65
2023/01/11 20:08:53;;;;;;;24.25;5.70;;;;;;;7.79;100.00;100836.13;10440010;28;20056;-65
2023/01/11 20:13:53;;;;;;;15.77;5.60;;;;;;;7.83;100.00;100835.56;10416142;28;20449;-67
2023/01/11 20:18:55;;;;;;;6.10;1.77;;;;;;;7.87;100.00;100844.13;10417931;28;20045;-67
2023/01/11 20:23:56;;;;;;;14.80;4.50;;;;;;;7.75;100.00;100834.78;10407707;28;20076;-66
2023/01/11 20:28:57;;;;;;;13.13;5.10;;;;;;;7.78;100.00;100845.19;10437050;28;20056;-66
2023/01/11 20:33:58;;;;;;;32.05;6.00;;;;;;;7.90;100.00;100838.38;10410152;28;20037;-66
2023/01/11 20:38:59;;;;;;;14.70;5.60;;;;;;;7.98;100.00;100826.69;10409163;28;20034;-66
2023/01/11 20:44:00;;;;;;;17.77;4.65;;;;;;;8.02;100.00;100836.91;10443925;28;20037;-67
2023/01/11 20:49:00;;;;;;;27.80;5.55;;;;;;;8.02;100.00;100828.81;10438643;28;20037;-65
2023/01/11 20:54:02;;;;;;;21.38;5.47;;;;;;;8.08;100.00;100843.44;10429903;28;20025;-67
2023/01/11 20:59:03;;;;;;;19.23;5.57;;;;;;;8.09;100.00;100843.25;10400962;28;20470;-66
2023/01/11 21:04:05;;;;;;;30.38;6.55;;;;;;;8.12;100.00;100848.28;10418771;28;20026;-67
2023/01/11 21:09:06;;;;;;;24.10;6.35;;;;;;;8.19;100.00;100840.28;10422523;28;20112;-66
2023/01/11 21:14:10;;;;;;;17.30;5.35;;;;;;;8.26;100.00;100835.81;10398147;28;20120;-67
2023/01/11 21:19:11;;;;;;;37.47;7.82;;;;;;;8.33;100.00;100841.34;10415969;28;20089;-66
2023/01/11 21:24:13;;;;;;;29.25;5.70;;;;;;;8.39;100.00;100813.63;10415783;28;20029;-67
2023/01/11 21:29:13;;;;;;;11.20;4.63;;;;;;;8.30;100.00;100815.56;10403328;28;20060;-65
2023/01/11 21:34:13;;;;;;;30.48;7.60;;;;;;;8.35;100.00;100806.91;10423649;28;20453;-67
2023/01/11 21:39:15;;;;;;;22.02;6.03;;;;;;;8.42;100.00;100807.03;10423055;28;20101;-66
2023/01/11 21:44:15;;;;;;;38.45;6.63;;;;;;;8.39;100.00;100816.31;10422045;28;20116;-67
2023/01/11 21:49:16;;;;;;;12.90;4.72;;;;;;;8.37;100.00;100808.41;10388493;28;20117;-66
2023/01/11 21:54:17;;;;;;;30.10;6.90;;;;;;;8.29;100.00;100795.00;10388067;28;20045;-66
2023/01/11 21:59:19;;;;;;;20.15;4.95;;;;;;;8.33;100.00;100808.97;10422010;28;20445;-65
2023/01/11 22:04:19;;;;;;;27.25;5.18;;;;;;;8.35;100.00;100777.22;10388787;28;20041;-65
2023/01/11 22:09:20;;;;;;;27.52;5.88;;;;;;;8.26;100.00;100818.81;10422664;28;20143;-65
2023/01/11 22:14:21;;;;;;;20.65;4.82;;;;;;;8.13;100.00;100809.47;10422049;28;20361;-65
2023/01/11 22:19:21;;;;;;;20.27;4.30;;;;;;;8.05;100.00;100820.38;10404107;28;20441;-65
2023/01/11 22:24:22;;;;;;;13.35;5.63;;;;;;;8.03;100.00;100830.50;10420681;28;20033;-66
2023/01/11 22:29:22;;;;;;;16.60;6.43;;;;;;;8.09;100.00;100828.94;10404889;28;20136;-65
2023/01/11 22:34:23;;;;;;;13.40;5.22;;;;;;;8.18;100.00;100840.47;10420373;28;20037;-65
2023/01/11 22:39:23;;;;;;;23.85;5.72;;;;;;;8.23;100.00;100840.75;10387017;28;20038;-67
2023/01/11 22:44:24;;;;;;;30.45;5.72;;;;;;;8.35;100.00;100836.59;10423585;28;20029;-66
2023/01/11 22:49:24;;;;;;;10.63;5.40;;;;;;;8.40;100.00;100836.09;10407516;28;20155;-66
2023/01/11 22:54:25;;;;;;;15.20;6.18;;;;;;;8.49;100.00;100852.00;10403126;28;20033;-66
2023/01/11 22:59:26;;;;;;;20.73;4.53;;;;;;;8.45;100.00;100836.34;10402044;28;20497;-66
2023/01/11 23:04:26;;;;;;;15.35;6.00;;;;;;;8.44;100.00;100838.22;10418990;28;20037;-66
2023/01/11 23:09:27;;;;;;;14.80;5.30;;;;;;;8.48;100.00;100836.81;10401714;28;20064;-66
2023/01/11 23:14:31;;;;;;;13.00;4.43;;;;;;;8.58;100.00;100839.22;10419127;28;20033;-66
2023/01/11 23:19:32;;;;;;;30.20;6.47;;;;;;;8.64;100.00;100843.06;10401804;28;20359;-66
2023/01/11 23:24:34;;;;;;;21.35;7.93;;;;;;;8.60;100.00;100835.34;10418311;28;20128;-66
2023/01/11 23:29:35;;;;;;;27.38;4.70;;;;;;;8.63;100.00;100828.72;10401971;28;20053;-66
2023/01/11 23:34:35;;;;;;;21.48;5.57;;;;;;;8.63;100.00;100830.59;10418697;28;20040;-66